AirNav   Bose Proflight Series 2 Wireless Aviation Headset
 
 1013 users online  

DC01 Washington Post Heliport
Washington, District of Columbia, USA

GOING TO WASHINGTON?


FAA INFORMATION EFFECTIVE 07 NOVEMBER 2019

Location

FAA Identifier: DC01
Lat/Long: 38-54-15.4020N 077-02-03.9160W
38-54.256700N 077-02.065267W
38.9042783,-77.0344211
(estimated)
Elevation: 175 ft. / 53 m (estimated)
Variation: 09W (1985)
Time zone: UTC -5 (UTC -4 during Daylight Saving Time)
Zip code: 20005

Heliport Operations

Heliport use: Private use. Permission required prior to landing
Activation date: 06/1976
Control tower: no
ARTCC: WASHINGTON CENTER
FSS: LEESBURG FLIGHT SERVICE STATION
Attendance: UNATNDD
FOR SVC CALL 202-334-6000.
Wind indicator: yes
Segmented circle: no
Lights: FOR PERI LGTS CALL 202-334-6000.
Beacon: white-yellow (lighted seaplane base)
FOR ROTG BCN CALL 202-334-6000.

Heliport Communications

UNICOM: 123.05
WX ASOS at DCA (3 nm S): 132.65 (703-412-8140)
WX AWOS-3 at CGS (7 nm NE): 121.225 (301-864-5497)
WX AWOS-3 at FME (17 nm NE): 123.925
WX AWOS-3PT at GAI (17 nm N): 128.275 (301-977-2971)

Nearby radio navigation aids

VOR radial/distance  VOR name  Freq  Var
DCAr011/2.7WASHINGTON VOR/DME111.0009W
ADWr317/9.8ANDREWS VORTAC113.1010W
OTTr321/18.0NOTTINGHAM VORTAC113.7010W
AMLr103/20.3ARMEL VOR/DME113.5008W
BALr238/23.6BALTIMORE VORTAC115.1011W
FDKr161/(34.4)FREDERICK VOR109.0008W
EMIr192/35.5WESTMINSTER VORTAC117.9008W
BRVr033/37.2BROOKE VORTAC114.5009W

 
NDB name  Hdg/Dist  Freq  Var  ID
GEORGETOWN119/4.532309WGTN --. - -.
OXONN009/8.333211WDCA -.. -.-. .-
DAVEE023/15.022309WDAA -.. .- .-
ELLICOTT219/25.937111WFND ..-. -. -..

Heliport Services

Runway Information

Helipad H1

Dimensions: 139 x 66 ft. / 42 x 20 m
Surface: asphalt
Runway edge lights: PERI
Latitude: 38-54.256700N
Longitude: 077-02.065267W
Elevation: 175.0 ft.
Traffic pattern: leftleft

Heliport Ownership and Management from official FAA records

Ownership: Privately-owned
Owner: WASHINGTON POST
Manager: CARR
1150 15TH STREET NW
WASHINGTON, DC 20071

Additional Remarks

FOR CD CTC POTOMAC APCH AT 866-599-3874.
(CONTACT TITLE) ADDITIONAL CONTACT: CARR PROPERTIES, 1776 1 ST NW, WASHINGTON, DC 20006

Instrument Procedures

There are no published instrument procedures at DC01.

Some nearby airports with instrument procedures:

KDCA - Ronald Reagan Washington National Airport (3 nm S)
KCGS - College Park Airport (7 nm NE)
KADW - Joint Base Andrews (10 nm SE)
KVKX - Potomac Airfield (10 nm S)
W32 - Washington Executive Airport/Hyde Field (10 nm SE)
W00 - Freeway Airport (12 nm E)
KDAA - Davison Army Airfield (13 nm SW)
KFME - Tipton Airport (17 nm NE)
KGAI - Montgomery County Airpark (17 nm N)
2W5 - Maryland Airport (19 nm S)
 
Loc | Ops | Rwys | IFR | FBO | Links
Com | Nav | Svcs | Stats | Notes
Area around DC01 (Washington Post Heliport)
 
Road maps at: MapQuest Bing Google
 
Aerial photo
No photo
 
Sectional chart

 
Airport distance calculator
Flying to Washington Post Heliport? Find the distance to fly.

From to DC01

Sunrise and sunset
Times for 20-Nov-2019
 Local
(UTC-5)
 Zulu
(UTC)
Morning civil twilight06:2911:29
Sunrise06:5711:57
Sunset16:5021:50
Evening civil twilight17:1922:19

Current date and time
Zulu (UTC)  20-Nov-2019 12:49:49
Local (UTC-5)  20-Nov-2019 07:49:49
 
METAR
KDCA 
3nm S 
201152Z 32007KT 10SM OVC075 09/02 A2999 RMK AO2 SLP156 T00890022 10100 20078 53023
KCGS 
7nm NE 
201235Z AUTO 32003KT 10SM OVC070 08/00 A3000 RMK AO1 T00760002
KADW 
9nm SE 
201156Z AUTO 00000KT 10SM OVC075 07/03 A2997 RMK AO2 SLP157 T00720025 10086 20060 52022 $
KDAA 
13nm SW 
201156Z AUTO 31003KT 10SM OVC070 08/02 A2999 RMK AO2 SLP159 T00810019 10092 20069 52025 $
KFME 
16nm NE 
201233Z AUTO 00000KT 10SM OVC070 05/03 A3003 RMK AO1
KGAI 
17nm N 
201156Z AUTO 31006KT 9SM OVC060 07/02 A2999 RMK AO2 SLP171 T00670017 10078 20056 53021
KIAD 
19nm W 
201152Z 30007KT 10SM OVC070 07/02 A2999 RMK AO2 SLP158 T00670017 10083 20067 53022
TAF
KDCA 
3nm S 
201141Z 2012/2118 32007KT P6SM OVC050 FM201500 32010G17KT P6SM BKN050 FM202200 32010KT P6SM FEW100 FM210600 32005KT P6SM FEW200 FM211200 VRB03KT P6SM FEW200
KADW 
9nm SE 
200900Z 2009/2115 32008KT 9999 SCT030 BKN050 620502 QNH2991INS BECMG 2013/2014 33010G20KT 9999 BKN030 BKN050 QNH3003INS TEMPO 2016/2019 33015G25KT BECMG 2021/2022 31008KT 9999 SCT020 SCT050 QNH3014INS TX12/2019Z TN03/2109Z
KDAA 
13nm SW 
201000Z 2010/2116 33006KT 9999 BKN050 BKN160 620504 QNH2993INS BECMG 2013/2014 33015G25KT 9999 BKN040 620402 QNH3003INS BECMG 2019/2020 33009KT 9999 SCT040 QNH3010INS TX12/2019Z TN04/2109Z
KIAD 
19nm W 
201141Z 2012/2118 32004KT P6SM OVC050 FM201500 32010G18KT P6SM BKN050 FM202000 32012KT P6SM SCT050 FM210400 32006KT P6SM FEW250 FM210900 VRB03KT P6SM FEW250
NOTAMs
Click for the latest NOTAMs
NOTAMs are issued by the DoD/FAA and will open in a separate window not controlled by AirNav.

 

 
 

Would you like to see your business listed on this page?

 If your business provides an interesting product or service to pilots, flight crews, aircraft, or users of the Washington Post Heliport, you should consider listing it here.  To start the listing process, click on the button below
 
Add a business
 

Other Pages about Washington Post Heliport

Update a link
 
Copyright © AirNav, LLC. All rights reserved. Privacy Policy  Contact